Airfield :
LOGIN :

Register | Disclaimer

   EN    FR    IT 

 










Legend :    VFR   Marginal VFR   IFR   Intensive IFR   Very Intensive IFR
Visi :
Ceiling :
>= 8 km
>= 3000ft
5 to 8 km
1000 to 3000 ft
1500m to 5 km
500 to 1000 ft
800 to 1500m
200 to 500 ft
< 800m
< 200 ft
Symbols :   Thunderstorms  Fog  Heavy snow  Heavy precipitations  Wind > 20 kt
SIGMETs :     Misc.  Thunderstorms  Icing  Turbulence  Mountain Waves  Volcanic Ashes






- Airport Elevation : 194 ft


EBCV - Chièvres

CURRENT METAR :
  • 180748Z AUTO 36004KT 8000 FEW004/// 06/05 Q1024 BLU

EXPIRED METARs :
  • 180725Z AUTO 35005KT 7000 SCT004/// BKN063/// 05/05 Q1024 YLO
  • 180655Z AUTO VRB02KT 4700 BR BKN004/// OVC064/// 04/04 Q1024 YLO
  • 180625Z AUTO VRB02KT 2800 BR SCT006/// 03/02 Q1024 YLO
  • 180613Z AUTO VRB01KT 3600 BR NCD 03/02 Q1024 YLO
  • 180555Z AUTO VRB01KT 4100 BR FEW064/// 02/02 Q1024 GRN
  • 180552Z AUTO VRB02KT 3600 BR FEW008/// 02/02 Q1024 YLO
  • 180525Z AUTO VRB02KT 0300 FG FEW008/// SCT063/// 01/01 Q1023 RED
  • 180503Z AUTO VRB01KT 0300 FG NCD 01/01 Q1023 RED

TAF TAF EBCV
Valid from the 18 at 07:00 until the 18 at 16:00 UTC


180541Z 1807/1816 VRB03KT 5000 BR FEW060
BECMG 1807/1809 9999 NSW FEW060 BY EBWM



MET'MAP, your aeronautical weather chart ! - Copyright ORBIFLY December 2007 - Disclaimer

ORBIFLY MET'MAP TEAM :

Programming & Development : Alexandra Zaïnal
Concept & original design : Baudouin d'Aumeries
Assistance for programming : Marc-Olivier Méhu
Technical & hardware support : Manuel Goepfert

Contact : metmap@orbifly.com




SOURCES & CREDITS :

   NOAA